sensor_id;sensor_type;location;lat;lon;timestamp;temperature;humidity
55642;DHT22;41509;53.108;6.100;2023-04-25T00:01:36;7.20;99.90
55642;DHT22;41509;53.108;6.100;2023-04-25T00:04:03;7.20;99.90
55642;DHT22;41509;53.108;6.100;2023-04-25T00:06:32;7.20;99.90
55642;DHT22;41509;53.108;6.100;2023-04-25T00:09:02;7.20;99.90
55642;DHT22;41509;53.108;6.100;2023-04-25T00:11:29;7.20;99.90
55642;DHT22;41509;53.108;6.100;2023-04-25T00:13:56;7.20;99.90
55642;DHT22;41509;53.108;6.100;2023-04-25T00:16:22;7.10;99.90
55642;DHT22;41509;53.108;6.100;2023-04-25T00:18:49;7.10;99.90
55642;DHT22;41509;53.108;6.100;2023-04-25T00:21:17;7.10;99.90
55642;DHT22;41509;53.108;6.100;2023-04-25T00:23:43;7.10;99.90
55642;DHT22;41509;53.108;6.100;2023-04-25T00:26:11;7.00;99.90
55642;DHT22;41509;53.108;6.100;2023-04-25T00:28:37;7.00;99.90
55642;DHT22;41509;53.108;6.100;2023-04-25T00:31:03;6.90;99.90
55642;DHT22;41509;53.108;6.100;2023-04-25T00:33:29;7.00;99.90
55642;DHT22;41509;53.108;6.100;2023-04-25T00:35:55;7.00;99.90
55642;DHT22;41509;53.108;6.100;2023-04-25T00:38:21;7.00;99.90
55642;DHT22;41509;53.108;6.100;2023-04-25T00:40:47;6.90;99.90
55642;DHT22;41509;53.108;6.100;2023-04-25T00:43:13;6.90;99.90
55642;DHT22;41509;53.108;6.100;2023-04-25T00:45:39;6.90;99.90
55642;DHT22;41509;53.108;6.100;2023-04-25T00:48:05;6.90;99.90
55642;DHT22;41509;53.108;6.100;2023-04-25T00:50:33;6.90;99.90
55642;DHT22;41509;53.108;6.100;2023-04-25T00:52:59;6.90;99.90
55642;DHT22;41509;53.108;6.100;2023-04-25T00:55:25;6.90;99.90
55642;DHT22;41509;53.108;6.100;2023-04-25T00:57:51;6.80;99.90
55642;DHT22;41509;53.108;6.100;2023-04-25T01:00:18;6.80;99.90
55642;DHT22;41509;53.108;6.100;2023-04-25T01:02:44;6.80;99.90
55642;DHT22;41509;53.108;6.100;2023-04-25T01:05:11;6.90;99.90
55642;DHT22;41509;53.108;6.100;2023-04-25T01:07:37;6.80;99.90
55642;DHT22;41509;53.108;6.100;2023-04-25T01:10:03;6.80;99.90
55642;DHT22;41509;53.108;6.100;2023-04-25T01:12:30;6.80;99.90
55642;DHT22;41509;53.108;6.100;2023-04-25T01:14:56;6.80;99.90
55642;DHT22;41509;53.108;6.100;2023-04-25T01:17:22;6.80;99.90
55642;DHT22;41509;53.108;6.100;2023-04-25T01:19:47;6.80;99.90
55642;DHT22;41509;53.108;6.100;2023-04-25T01:22:14;6.80;99.90
55642;DHT22;41509;53.108;6.100;2023-04-25T01:24:41;6.80;99.90
55642;DHT22;41509;53.108;6.100;2023-04-25T01:27:07;6.80;99.90
55642;DHT22;41509;53.108;6.100;2023-04-25T01:29:33;6.80;99.90
55642;DHT22;41509;53.108;6.100;2023-04-25T01:32:02;6.80;99.90
55642;DHT22;41509;53.108;6.100;2023-04-25T01:34:28;6.70;99.90
55642;DHT22;41509;53.108;6.100;2023-04-25T01:36:55;6.70;99.90
55642;DHT22;41509;53.108;6.100;2023-04-25T01:39:20;6.70;99.90
55642;DHT22;41509;53.108;6.100;2023-04-25T01:41:46;6.70;99.90
55642;DHT22;41509;53.108;6.100;2023-04-25T01:44:15;6.70;99.90
55642;DHT22;41509;53.108;6.100;2023-04-25T01:46:41;6.70;99.90
55642;DHT22;41509;53.108;6.100;2023-04-25T01:49:07;6.70;99.90
55642;DHT22;41509;53.108;6.100;2023-04-25T01:51:33;6.80;99.90
55642;DHT22;41509;53.108;6.100;2023-04-25T01:53:59;6.70;99.90
55642;DHT22;41509;53.108;6.100;2023-04-25T01:56:24;6.60;99.90
55642;DHT22;41509;53.108;6.100;2023-04-25T01:58:53;6.70;99.90
55642;DHT22;41509;53.108;6.100;2023-04-25T02:01:21;6.60;99.90
55642;DHT22;41509;53.108;6.100;2023-04-25T02:03:47;6.60;99.90
55642;DHT22;41509;53.108;6.100;2023-04-25T02:06:13;6.60;99.90
55642;DHT22;41509;53.108;6.100;2023-04-25T02:08:38;6.50;99.90
55642;DHT22;41509;53.108;6.100;2023-04-25T02:11:04;6.50;99.90
55642;DHT22;41509;53.108;6.100;2023-04-25T02:13:30;6.50;99.90
55642;DHT22;41509;53.108;6.100;2023-04-25T02:15:55;6.50;99.90
55642;DHT22;41509;53.108;6.100;2023-04-25T02:18:21;6.40;99.90
55642;DHT22;41509;53.108;6.100;2023-04-25T02:20:47;6.50;99.90
55642;DHT22;41509;53.108;6.100;2023-04-25T02:23:12;6.50;99.90
55642;DHT22;41509;53.108;6.100;2023-04-25T02:25:41;6.50;99.90
55642;DHT22;41509;53.108;6.100;2023-04-25T02:28:06;6.40;99.90
55642;DHT22;41509;53.108;6.100;2023-04-25T02:30:32;6.50;99.90
55642;DHT22;41509;53.108;6.100;2023-04-25T02:32:58;6.50;99.90
55642;DHT22;41509;53.108;6.100;2023-04-25T02:35:23;6.50;99.90
55642;DHT22;41509;53.108;6.100;2023-04-25T02:37:49;6.50;99.90
55642;DHT22;41509;53.108;6.100;2023-04-25T02:40:17;6.50;99.90
55642;DHT22;41509;53.108;6.100;2023-04-25T02:42:42;6.50;99.90
55642;DHT22;41509;53.108;6.100;2023-04-25T02:45:08;6.40;99.90
55642;DHT22;41509;53.108;6.100;2023-04-25T02:47:34;6.30;99.90
55642;DHT22;41509;53.108;6.100;2023-04-25T02:50:03;6.20;99.90
55642;DHT22;41509;53.108;6.100;2023-04-25T02:52:29;6.10;99.90
55642;DHT22;41509;53.108;6.100;2023-04-25T02:54:55;6.10;99.90
55642;DHT22;41509;53.108;6.100;2023-04-25T02:57:20;5.90;99.90
55642;DHT22;41509;53.108;6.100;2023-04-25T02:59:46;5.90;99.90
55642;DHT22;41509;53.108;6.100;2023-04-25T03:02:12;5.80;99.90
55642;DHT22;41509;53.108;6.100;2023-04-25T03:04:37;5.80;99.90
55642;DHT22;41509;53.108;6.100;2023-04-25T03:07:03;5.80;99.90
55642;DHT22;41509;53.108;6.100;2023-04-25T03:09:28;5.70;99.90
55642;DHT22;41509;53.108;6.100;2023-04-25T03:11:54;5.70;99.90
55642;DHT22;41509;53.108;6.100;2023-04-25T03:14:20;5.70;99.90
55642;DHT22;41509;53.108;6.100;2023-04-25T03:16:45;5.70;99.90
55642;DHT22;41509;53.108;6.100;2023-04-25T03:19:11;5.70;99.90
55642;DHT22;41509;53.108;6.100;2023-04-25T03:21:37;5.70;99.90
55642;DHT22;41509;53.108;6.100;2023-04-25T03:24:05;5.70;99.90
55642;DHT22;41509;53.108;6.100;2023-04-25T03:26:31;5.70;99.90
55642;DHT22;41509;53.108;6.100;2023-04-25T03:28:59;5.70;99.90
55642;DHT22;41509;53.108;6.100;2023-04-25T03:31:24;5.70;99.90
55642;DHT22;41509;53.108;6.100;2023-04-25T03:33:50;5.70;99.90
55642;DHT22;41509;53.108;6.100;2023-04-25T03:36:15;5.70;99.90
55642;DHT22;41509;53.108;6.100;2023-04-25T03:38:41;5.70;99.90
55642;DHT22;41509;53.108;6.100;2023-04-25T03:41:07;5.70;99.90
55642;DHT22;41509;53.108;6.100;2023-04-25T03:43:32;5.60;99.90
55642;DHT22;41509;53.108;6.100;2023-04-25T03:45:58;5.60;99.90
55642;DHT22;41509;53.108;6.100;2023-04-25T03:48:26;5.60;99.90
55642;DHT22;41509;53.108;6.100;2023-04-25T03:50:53;5.60;99.90
55642;DHT22;41509;53.108;6.100;2023-04-25T03:53:19;5.60;99.90
55642;DHT22;41509;53.108;6.100;2023-04-25T03:55:44;5.50;99.90
55642;DHT22;41509;53.108;6.100;2023-04-25T03:58:10;5.50;99.90
55642;DHT22;41509;53.108;6.100;2023-04-25T04:00:36;5.60;99.90
55642;DHT22;41509;53.108;6.100;2023-04-25T04:03:01;5.60;99.90
55642;DHT22;41509;53.108;6.100;2023-04-25T04:05:27;5.60;99.90
55642;DHT22;41509;53.108;6.100;2023-04-25T04:07:54;5.60;99.90
55642;DHT22;41509;53.108;6.100;2023-04-25T04:10:20;5.60;99.90
55642;DHT22;41509;53.108;6.100;2023-04-25T04:12:45;5.60;99.90
55642;DHT22;41509;53.108;6.100;2023-04-25T04:15:11;5.60;99.90
55642;DHT22;41509;53.108;6.100;2023-04-25T04:17:37;5.60;99.90
55642;DHT22;41509;53.108;6.100;2023-04-25T04:20:03;5.70;99.90
55642;DHT22;41509;53.108;6.100;2023-04-25T04:22:29;5.70;99.90
55642;DHT22;41509;53.108;6.100;2023-04-25T04:24:55;5.70;99.90
55642;DHT22;41509;53.108;6.100;2023-04-25T04:27:24;5.60;99.90
55642;DHT22;41509;53.108;6.100;2023-04-25T04:29:50;5.70;99.90
55642;DHT22;41509;53.108;6.100;2023-04-25T04:32:17;5.60;99.90
55642;DHT22;41509;53.108;6.100;2023-04-25T04:34:45;5.70;99.90
55642;DHT22;41509;53.108;6.100;2023-04-25T04:37:12;5.60;99.90
55642;DHT22;41509;53.108;6.100;2023-04-25T04:39:38;5.70;99.90
55642;DHT22;41509;53.108;6.100;2023-04-25T04:42:04;5.70;99.90
55642;DHT22;41509;53.108;6.100;2023-04-25T04:44:31;5.70;99.90
55642;DHT22;41509;53.108;6.100;2023-04-25T04:47:02;5.70;99.90
55642;DHT22;41509;53.108;6.100;2023-04-25T04:49:31;5.70;99.90
55642;DHT22;41509;53.108;6.100;2023-04-25T04:51:57;5.70;99.90
55642;DHT22;41509;53.108;6.100;2023-04-25T04:54:25;5.80;99.90
55642;DHT22;41509;53.108;6.100;2023-04-25T04:56:50;5.80;99.90
55642;DHT22;41509;53.108;6.100;2023-04-25T04:59:17;5.80;99.90
55642;DHT22;41509;53.108;6.100;2023-04-25T05:01:43;5.80;99.90
55642;DHT22;41509;53.108;6.100;2023-04-25T05:04:08;5.80;99.90
55642;DHT22;41509;53.108;6.100;2023-04-25T05:06:34;5.80;99.90
55642;DHT22;41509;53.108;6.100;2023-04-25T05:09:00;5.80;99.90
55642;DHT22;41509;53.108;6.100;2023-04-25T05:11:25;5.80;99.90
55642;DHT22;41509;53.108;6.100;2023-04-25T05:13:52;5.90;99.90
55642;DHT22;41509;53.108;6.100;2023-04-25T05:16:17;5.90;99.90
55642;DHT22;41509;53.108;6.100;2023-04-25T05:18:43;5.90;99.90
55642;DHT22;41509;53.108;6.100;2023-04-25T05:21:09;5.90;99.90
55642;DHT22;41509;53.108;6.100;2023-04-25T05:23:34;6.00;99.90
55642;DHT22;41509;53.108;6.100;2023-04-25T05:26:00;6.00;99.90
55642;DHT22;41509;53.108;6.100;2023-04-25T05:28:26;6.00;99.90
55642;DHT22;41509;53.108;6.100;2023-04-25T05:30:52;6.10;99.90
55642;DHT22;41509;53.108;6.100;2023-04-25T05:33:18;6.10;99.90
55642;DHT22;41509;53.108;6.100;2023-04-25T05:35:43;6.10;99.90
55642;DHT22;41509;53.108;6.100;2023-04-25T05:38:12;6.10;99.90
55642;DHT22;41509;53.108;6.100;2023-04-25T05:40:40;6.10;99.90
55642;DHT22;41509;53.108;6.100;2023-04-25T05:43:06;6.10;99.90
55642;DHT22;41509;53.108;6.100;2023-04-25T05:45:32;6.10;99.90
55642;DHT22;41509;53.108;6.100;2023-04-25T05:47:58;6.10;99.90
55642;DHT22;41509;53.108;6.100;2023-04-25T05:50:24;6.20;99.90
55642;DHT22;41509;53.108;6.100;2023-04-25T05:52:50;6.20;99.90
55642;DHT22;41509;53.108;6.100;2023-04-25T05:55:16;6.20;99.90
55642;DHT22;41509;53.108;6.100;2023-04-25T05:57:42;6.30;99.90
55642;DHT22;41509;53.108;6.100;2023-04-25T06:00:13;6.30;99.90
55642;DHT22;41509;53.108;6.100;2023-04-25T06:02:40;6.40;99.90
55642;DHT22;41509;53.108;6.100;2023-04-25T06:05:06;6.50;99.90
55642;DHT22;41509;53.108;6.100;2023-04-25T06:07:32;6.50;99.90
55642;DHT22;41509;53.108;6.100;2023-04-25T06:09:58;6.60;99.90
55642;DHT22;41509;53.108;6.100;2023-04-25T06:12:23;6.60;99.90
55642;DHT22;41509;53.108;6.100;2023-04-25T06:14:49;6.50;99.90
55642;DHT22;41509;53.108;6.100;2023-04-25T06:17:15;6.40;99.90
55642;DHT22;41509;53.108;6.100;2023-04-25T06:19:40;6.30;99.90
55642;DHT22;41509;53.108;6.100;2023-04-25T06:22:07;6.30;99.90
55642;DHT22;41509;53.108;6.100;2023-04-25T06:24:33;6.20;99.90
55642;DHT22;41509;53.108;6.100;2023-04-25T06:26:59;6.20;99.90
55642;DHT22;41509;53.108;6.100;2023-04-25T06:29:27;6.20;99.90
55642;DHT22;41509;53.108;6.100;2023-04-25T06:31:52;6.20;99.90
55642;DHT22;41509;53.108;6.100;2023-04-25T06:34:18;6.30;99.90
55642;DHT22;41509;53.108;6.100;2023-04-25T06:36:43;6.30;99.90
55642;DHT22;41509;53.108;6.100;2023-04-25T06:39:10;6.30;99.90
55642;DHT22;41509;53.108;6.100;2023-04-25T06:41:39;6.40;99.90
55642;DHT22;41509;53.108;6.100;2023-04-25T06:44:04;6.40;99.90
55642;DHT22;41509;53.108;6.100;2023-04-25T06:46:33;6.40;99.90
55642;DHT22;41509;53.108;6.100;2023-04-25T06:48:58;6.50;99.90
55642;DHT22;41509;53.108;6.100;2023-04-25T06:51:24;6.60;99.90
55642;DHT22;41509;53.108;6.100;2023-04-25T06:53:50;6.60;99.90
55642;DHT22;41509;53.108;6.100;2023-04-25T06:56:16;6.70;99.90
55642;DHT22;41509;53.108;6.100;2023-04-25T06:58:41;6.60;99.90
55642;DHT22;41509;53.108;6.100;2023-04-25T07:01:07;6.50;99.90
55642;DHT22;41509;53.108;6.100;2023-04-25T07:03:33;6.30;99.90
55642;DHT22;41509;53.108;6.100;2023-04-25T07:05:58;6.20;99.90
55642;DHT22;41509;53.108;6.100;2023-04-25T07:08:24;6.10;99.90
55642;DHT22;41509;53.108;6.100;2023-04-25T07:10:50;6.10;99.90
55642;DHT22;41509;53.108;6.100;2023-04-25T07:13:15;6.10;99.90
55642;DHT22;41509;53.108;6.100;2023-04-25T07:15:41;6.10;99.90
55642;DHT22;41509;53.108;6.100;2023-04-25T07:18:07;6.20;99.90
55642;DHT22;41509;53.108;6.100;2023-04-25T07:20:33;6.30;99.90
55642;DHT22;41509;53.108;6.100;2023-04-25T07:22:58;6.30;99.90
55642;DHT22;41509;53.108;6.100;2023-04-25T07:25:24;6.40;99.90
55642;DHT22;41509;53.108;6.100;2023-04-25T07:27:50;6.50;99.90
55642;DHT22;41509;53.108;6.100;2023-04-25T07:30:15;6.50;99.90
55642;DHT22;41509;53.108;6.100;2023-04-25T07:32:41;6.60;99.90
55642;DHT22;41509;53.108;6.100;2023-04-25T07:35:07;6.60;99.90
55642;DHT22;41509;53.108;6.100;2023-04-25T07:37:34;6.60;99.90
55642;DHT22;41509;53.108;6.100;2023-04-25T07:39:59;6.60;99.90
55642;DHT22;41509;53.108;6.100;2023-04-25T07:42:25;6.70;99.90
55642;DHT22;41509;53.108;6.100;2023-04-25T07:44:51;6.70;99.90
55642;DHT22;41509;53.108;6.100;2023-04-25T07:47:17;6.70;99.90
55642;DHT22;41509;53.108;6.100;2023-04-25T07:49:44;6.80;99.90
55642;DHT22;41509;53.108;6.100;2023-04-25T07:52:11;6.80;99.90
55642;DHT22;41509;53.108;6.100;2023-04-25T07:54:36;7.00;99.90
55642;DHT22;41509;53.108;6.100;2023-04-25T07:57:02;7.10;99.90
55642;DHT22;41509;53.108;6.100;2023-04-25T07:59:28;7.20;99.90
55642;DHT22;41509;53.108;6.100;2023-04-25T08:01:53;7.30;99.90
55642;DHT22;41509;53.108;6.100;2023-04-25T08:04:19;7.50;99.90
55642;DHT22;41509;53.108;6.100;2023-04-25T08:06:45;7.60;99.90
55642;DHT22;41509;53.108;6.100;2023-04-25T08:09:11;7.70;99.90
55642;DHT22;41509;53.108;6.100;2023-04-25T08:11:37;8.00;99.90
55642;DHT22;41509;53.108;6.100;2023-04-25T08:14:02;8.20;99.90
55642;DHT22;41509;53.108;6.100;2023-04-25T08:16:28;8.20;99.90
55642;DHT22;41509;53.108;6.100;2023-04-25T08:18:54;8.10;99.90
55642;DHT22;41509;53.108;6.100;2023-04-25T08:21:20;8.00;99.90
55642;DHT22;41509;53.108;6.100;2023-04-25T08:23:46;7.90;99.90
55642;DHT22;41509;53.108;6.100;2023-04-25T08:26:11;7.80;99.90
55642;DHT22;41509;53.108;6.100;2023-04-25T08:28:37;7.80;99.90
55642;DHT22;41509;53.108;6.100;2023-04-25T08:31:03;7.80;99.90
55642;DHT22;41509;53.108;6.100;2023-04-25T08:33:29;7.80;99.90
55642;DHT22;41509;53.108;6.100;2023-04-25T08:35:55;7.80;99.90
55642;DHT22;41509;53.108;6.100;2023-04-25T08:38:21;7.90;99.90
55642;DHT22;41509;53.108;6.100;2023-04-25T08:40:49;7.90;99.90
55642;DHT22;41509;53.108;6.100;2023-04-25T08:43:19;8.00;99.90
55642;DHT22;41509;53.108;6.100;2023-04-25T08:45:45;8.10;99.90
55642;DHT22;41509;53.108;6.100;2023-04-25T08:48:16;8.20;99.90
55642;DHT22;41509;53.108;6.100;2023-04-25T08:50:53;8.30;99.90
55642;DHT22;41509;53.108;6.100;2023-04-25T08:53:25;8.40;99.90
55642;DHT22;41509;53.108;6.100;2023-04-25T08:55:54;8.50;99.90
55642;DHT22;41509;53.108;6.100;2023-04-25T08:58:20;8.60;99.90
55642;DHT22;41509;53.108;6.100;2023-04-25T09:00:47;8.70;99.90
55642;DHT22;41509;53.108;6.100;2023-04-25T09:03:13;8.90;99.90
55642;DHT22;41509;53.108;6.100;2023-04-25T09:05:40;8.90;99.90
55642;DHT22;41509;53.108;6.100;2023-04-25T09:08:07;8.80;99.90
55642;DHT22;41509;53.108;6.100;2023-04-25T09:10:33;8.60;99.90
55642;DHT22;41509;53.108;6.100;2023-04-25T09:15:32;8.30;99.90
55642;DHT22;41509;53.108;6.100;2023-04-25T09:17:59;8.20;99.90
55642;DHT22;41509;53.108;6.100;2023-04-25T09:20:25;8.20;99.90
55642;DHT22;41509;53.108;6.100;2023-04-25T09:23:04;8.30;99.90
55642;DHT22;41509;53.108;6.100;2023-04-25T09:25:34;8.40;99.90
55642;DHT22;41509;53.108;6.100;2023-04-25T09:28:04;8.60;99.90
55642;DHT22;41509;53.108;6.100;2023-04-25T09:30:31;8.70;99.90
55642;DHT22;41509;53.108;6.100;2023-04-25T09:33:04;8.90;99.90
55642;DHT22;41509;53.108;6.100;2023-04-25T09:35:42;9.00;99.90
55642;DHT22;41509;53.108;6.100;2023-04-25T09:38:13;9.20;99.90
55642;DHT22;41509;53.108;6.100;2023-04-25T09:40:40;9.20;99.90
55642;DHT22;41509;53.108;6.100;2023-04-25T09:43:22;9.30;99.90
55642;DHT22;41509;53.108;6.100;2023-04-25T09:45:49;9.40;99.90
55642;DHT22;41509;53.108;6.100;2023-04-25T09:48:27;9.40;99.90
55642;DHT22;41509;53.108;6.100;2023-04-25T09:51:10;9.30;99.90
55642;DHT22;41509;53.108;6.100;2023-04-25T09:53:41;9.40;99.90
55642;DHT22;41509;53.108;6.100;2023-04-25T09:56:09;9.40;99.90
55642;DHT22;41509;53.108;6.100;2023-04-25T09:58:37;9.60;99.90
55642;DHT22;41509;53.108;6.100;2023-04-25T10:01:05;9.70;99.90
55642;DHT22;41509;53.108;6.100;2023-04-25T10:03:33;9.80;99.90
55642;DHT22;41509;53.108;6.100;2023-04-25T10:06:00;9.80;99.90
55642;DHT22;41509;53.108;6.100;2023-04-25T10:08:33;9.80;99.90
55642;DHT22;41509;53.108;6.100;2023-04-25T10:11:01;9.70;99.90
55642;DHT22;41509;53.108;6.100;2023-04-25T10:13:29;9.60;99.90
55642;DHT22;41509;53.108;6.100;2023-04-25T10:16:00;9.60;99.90
55642;DHT22;41509;53.108;6.100;2023-04-25T10:18:27;9.70;99.90
55642;DHT22;41509;53.108;6.100;2023-04-25T10:20:54;9.70;99.90
55642;DHT22;41509;53.108;6.100;2023-04-25T10:23:21;9.70;99.90
55642;DHT22;41509;53.108;6.100;2023-04-25T10:25:47;9.60;99.90
55642;DHT22;41509;53.108;6.100;2023-04-25T10:28:13;9.50;99.90
55642;DHT22;41509;53.108;6.100;2023-04-25T10:30:59;9.40;99.90
55642;DHT22;41509;53.108;6.100;2023-04-25T10:33:35;9.20;99.90
55642;DHT22;41509;53.108;6.100;2023-04-25T10:36:18;8.80;99.90
55642;DHT22;41509;53.108;6.100;2023-04-25T10:38:45;8.50;99.90
55642;DHT22;41509;53.108;6.100;2023-04-25T10:41:12;8.20;99.90
55642;DHT22;41509;53.108;6.100;2023-04-25T10:43:43;8.10;99.90
55642;DHT22;41509;53.108;6.100;2023-04-25T10:48:51;7.90;99.90
55642;DHT22;41509;53.108;6.100;2023-04-25T10:51:25;7.90;99.90
55642;DHT22;41509;53.108;6.100;2023-04-25T10:58:47;7.90;99.90
55642;DHT22;41509;53.108;6.100;2023-04-25T11:01:20;7.90;99.90
55642;DHT22;41509;53.108;6.100;2023-04-25T11:03:46;8.00;99.90
55642;DHT22;41509;53.108;6.100;2023-04-25T11:09:10;8.00;99.90
55642;DHT22;41509;53.108;6.100;2023-04-25T11:11:38;8.00;99.90
55642;DHT22;41509;53.108;6.100;2023-04-25T11:14:04;8.30;99.90
55642;DHT22;41509;53.108;6.100;2023-04-25T11:16:30;8.50;99.90
55642;DHT22;41509;53.108;6.100;2023-04-25T11:18:58;8.60;99.90
55642;DHT22;41509;53.108;6.100;2023-04-25T11:21:25;8.60;99.90
55642;DHT22;41509;53.108;6.100;2023-04-25T11:23:54;8.50;99.90
55642;DHT22;41509;53.108;6.100;2023-04-25T11:26:20;8.40;99.90
55642;DHT22;41509;53.108;6.100;2023-04-25T11:28:46;8.40;99.90
55642;DHT22;41509;53.108;6.100;2023-04-25T11:31:12;8.40;99.90
55642;DHT22;41509;53.108;6.100;2023-04-25T11:33:38;8.70;99.90
55642;DHT22;41509;53.108;6.100;2023-04-25T11:36:06;8.90;99.90
55642;DHT22;41509;53.108;6.100;2023-04-25T11:38:32;9.20;99.90
55642;DHT22;41509;53.108;6.100;2023-04-25T11:40:58;9.20;99.90
55642;DHT22;41509;53.108;6.100;2023-04-25T11:43:23;9.10;99.90
55642;DHT22;41509;53.108;6.100;2023-04-25T11:45:50;8.70;99.90
55642;DHT22;41509;53.108;6.100;2023-04-25T11:48:19;8.50;99.90
55642;DHT22;41509;53.108;6.100;2023-04-25T11:50:45;8.50;99.90
55642;DHT22;41509;53.108;6.100;2023-04-25T11:53:11;8.50;99.90
55642;DHT22;41509;53.108;6.100;2023-04-25T11:55:37;8.40;99.90
55642;DHT22;41509;53.108;6.100;2023-04-25T11:58:04;8.20;99.90
55642;DHT22;41509;53.108;6.100;2023-04-25T12:00:30;8.20;99.90
55642;DHT22;41509;53.108;6.100;2023-04-25T12:02:57;8.10;99.90
55642;DHT22;41509;53.108;6.100;2023-04-25T12:05:29;8.20;99.90
55642;DHT22;41509;53.108;6.100;2023-04-25T12:08:13;8.20;99.90
55642;DHT22;41509;53.108;6.100;2023-04-25T12:10:48;8.50;99.90
55642;DHT22;41509;53.108;6.100;2023-04-25T12:16:50;8.70;99.90
55642;DHT22;41509;53.108;6.100;2023-04-25T12:19:18;8.60;99.90
55642;DHT22;41509;53.108;6.100;2023-04-25T12:21:44;8.50;99.90
55642;DHT22;41509;53.108;6.100;2023-04-25T12:24:11;8.50;99.90
55642;DHT22;41509;53.108;6.100;2023-04-25T12:26:53;8.80;99.90
55642;DHT22;41509;53.108;6.100;2023-04-25T12:29:30;9.10;99.90
55642;DHT22;41509;53.108;6.100;2023-04-25T12:31:59;9.30;99.90
55642;DHT22;41509;53.108;6.100;2023-04-25T12:34:27;9.40;99.90
55642;DHT22;41509;53.108;6.100;2023-04-25T12:36:53;9.30;99.90
55642;DHT22;41509;53.108;6.100;2023-04-25T12:39:24;9.30;99.90
55642;DHT22;41509;53.108;6.100;2023-04-25T12:41:50;9.20;99.90
55642;DHT22;41509;53.108;6.100;2023-04-25T12:44:41;9.30;99.90
55642;DHT22;41509;53.108;6.100;2023-04-25T12:47:07;9.50;99.90
55642;DHT22;41509;53.108;6.100;2023-04-25T12:49:33;9.70;99.90
55642;DHT22;41509;53.108;6.100;2023-04-25T12:51:58;9.90;99.90
55642;DHT22;41509;53.108;6.100;2023-04-25T12:54:24;10.20;99.90
55642;DHT22;41509;53.108;6.100;2023-04-25T12:56:51;10.40;99.90
55642;DHT22;41509;53.108;6.100;2023-04-25T12:59:17;10.60;99.90
55642;DHT22;41509;53.108;6.100;2023-04-25T13:01:42;10.70;99.90
55642;DHT22;41509;53.108;6.100;2023-04-25T13:04:09;10.80;99.90
55642;DHT22;41509;53.108;6.100;2023-04-25T13:06:35;10.60;99.90
55642;DHT22;41509;53.108;6.100;2023-04-25T13:09:01;10.40;99.90
55642;DHT22;41509;53.108;6.100;2023-04-25T13:11:27;10.10;99.90
55642;DHT22;41509;53.108;6.100;2023-04-25T13:13:52;9.90;99.90
55642;DHT22;41509;53.108;6.100;2023-04-25T13:16:18;9.80;99.90
55642;DHT22;41509;53.108;6.100;2023-04-25T13:18:46;9.80;99.90
55642;DHT22;41509;53.108;6.100;2023-04-25T13:21:11;10.00;99.90
55642;DHT22;41509;53.108;6.100;2023-04-25T13:23:37;10.20;99.90
55642;DHT22;41509;53.108;6.100;2023-04-25T13:26:03;10.60;99.90
55642;DHT22;41509;53.108;6.100;2023-04-25T13:28:28;10.80;99.90
55642;DHT22;41509;53.108;6.100;2023-04-25T13:30:54;11.00;99.90
55642;DHT22;41509;53.108;6.100;2023-04-25T13:33:20;11.10;99.90
55642;DHT22;41509;53.108;6.100;2023-04-25T13:35:47;11.10;99.90
55642;DHT22;41509;53.108;6.100;2023-04-25T13:38:20;10.90;99.90
55642;DHT22;41509;53.108;6.100;2023-04-25T13:40:46;10.80;99.90
55642;DHT22;41509;53.108;6.100;2023-04-25T13:43:12;10.60;99.90
55642;DHT22;41509;53.108;6.100;2023-04-25T13:45:37;10.40;99.90
55642;DHT22;41509;53.108;6.100;2023-04-25T13:48:03;10.10;99.90
55642;DHT22;41509;53.108;6.100;2023-04-25T13:50:29;9.90;99.90
55642;DHT22;41509;53.108;6.100;2023-04-25T13:52:55;9.60;99.90
55642;DHT22;41509;53.108;6.100;2023-04-25T13:55:21;9.60;99.90
55642;DHT22;41509;53.108;6.100;2023-04-25T13:57:46;9.50;99.90
55642;DHT22;41509;53.108;6.100;2023-04-25T14:00:15;9.50;99.90
55642;DHT22;41509;53.108;6.100;2023-04-25T14:02:41;9.60;99.90
55642;DHT22;41509;53.108;6.100;2023-04-25T14:05:07;9.80;99.90
55642;DHT22;41509;53.108;6.100;2023-04-25T14:07:36;10.00;99.90
55642;DHT22;41509;53.108;6.100;2023-04-25T14:10:03;10.00;99.90
55642;DHT22;41509;53.108;6.100;2023-04-25T14:12:30;10.00;99.90
55642;DHT22;41509;53.108;6.100;2023-04-25T14:14:55;10.10;99.90
55642;DHT22;41509;53.108;6.100;2023-04-25T14:17:21;10.30;99.90
55642;DHT22;41509;53.108;6.100;2023-04-25T14:19:47;10.50;99.90
55642;DHT22;41509;53.108;6.100;2023-04-25T14:22:14;10.50;99.90
55642;DHT22;41509;53.108;6.100;2023-04-25T14:24:41;10.60;99.90
55642;DHT22;41509;53.108;6.100;2023-04-25T14:27:06;10.70;99.90
55642;DHT22;41509;53.108;6.100;2023-04-25T14:29:32;10.70;99.90
55642;DHT22;41509;53.108;6.100;2023-04-25T14:31:58;10.50;99.90
55642;DHT22;41509;53.108;6.100;2023-04-25T14:34:25;10.50;99.90
55642;DHT22;41509;53.108;6.100;2023-04-25T14:36:51;10.30;99.90
55642;DHT22;41509;53.108;6.100;2023-04-25T14:39:17;10.10;99.90
55642;DHT22;41509;53.108;6.100;2023-04-25T14:41:43;9.90;99.90
55642;DHT22;41509;53.108;6.100;2023-04-25T14:44:09;10.00;99.90
55642;DHT22;41509;53.108;6.100;2023-04-25T14:46:35;10.20;99.90
55642;DHT22;41509;53.108;6.100;2023-04-25T14:49:01;10.60;99.90
55642;DHT22;41509;53.108;6.100;2023-04-25T14:51:27;10.70;99.90
55642;DHT22;41509;53.108;6.100;2023-04-25T14:53:53;10.70;99.90
55642;DHT22;41509;53.108;6.100;2023-04-25T14:56:19;10.50;99.90
55642;DHT22;41509;53.108;6.100;2023-04-25T14:58:44;10.40;99.90
55642;DHT22;41509;53.108;6.100;2023-04-25T15:01:11;10.50;99.90
55642;DHT22;41509;53.108;6.100;2023-04-25T15:03:39;10.50;99.90
55642;DHT22;41509;53.108;6.100;2023-04-25T15:06:05;10.70;99.90
55642;DHT22;41509;53.108;6.100;2023-04-25T15:08:32;10.90;99.90
55642;DHT22;41509;53.108;6.100;2023-04-25T15:10:58;11.00;99.90
55642;DHT22;41509;53.108;6.100;2023-04-25T15:13:24;11.00;99.90
55642;DHT22;41509;53.108;6.100;2023-04-25T15:15:50;11.10;99.90
55642;DHT22;41509;53.108;6.100;2023-04-25T15:18:17;11.20;99.90
55642;DHT22;41509;53.108;6.100;2023-04-25T15:20:43;11.50;99.90
55642;DHT22;41509;53.108;6.100;2023-04-25T15:23:08;11.50;99.90
55642;DHT22;41509;53.108;6.100;2023-04-25T15:25:34;11.40;99.90
55642;DHT22;41509;53.108;6.100;2023-04-25T15:28:00;10.90;99.90
55642;DHT22;41509;53.108;6.100;2023-04-25T15:30:25;10.50;99.90
55642;DHT22;41509;53.108;6.100;2023-04-25T15:32:51;10.20;99.90
55642;DHT22;41509;53.108;6.100;2023-04-25T15:35:16;10.10;99.90
55642;DHT22;41509;53.108;6.100;2023-04-25T15:37:42;10.20;99.90
55642;DHT22;41509;53.108;6.100;2023-04-25T15:40:10;10.50;99.90
55642;DHT22;41509;53.108;6.100;2023-04-25T15:42:48;10.80;99.90
55642;DHT22;41509;53.108;6.100;2023-04-25T15:45:27;10.90;99.90
55642;DHT22;41509;53.108;6.100;2023-04-25T15:47:55;11.00;99.90
55642;DHT22;41509;53.108;6.100;2023-04-25T15:50:21;11.10;99.90
55642;DHT22;41509;53.108;6.100;2023-04-25T15:52:48;11.20;99.90
55642;DHT22;41509;53.108;6.100;2023-04-25T15:55:14;11.30;99.80
55642;DHT22;41509;53.108;6.100;2023-04-25T15:57:43;11.30;98.70